Sylvan Lake, Michigan
Current Conditions -  °F | °C
As of 4:53 PM on Wednesday 22 Oct 2014 (Local Time) from KPTK Reporting Station
Scattered Clouds Scattered Clouds  
Wind Chill: 11°   Ceiling: Unl
Heat Index: 11°   Visibility: 10mi
Dew Point:   Wind: 8mph
Humidity: 59%   Direction: 290°WNW
Pressure: 30.29"   Gusts: NA
Location:  42.6112°N, 83.3377°W
Report Text: KPTK 222053Z 29007KT 10SM SCT028 11/03 A3029 RMK AO2 SLP260 T01110033 56008
Loading
Personal Weather Stations






























Interactive Weather Map
Tropical Storm Tracking
New forecast layout! Learn more

10-Day Weather Forecast

Advertisements
Track Severe Weather on mobile